createdAt,value
2018-07-05T00:00:49.587Z,83.53
2018-07-05T00:01:49.742Z,83.73
2018-07-05T00:02:49.897Z,83.34
2018-07-05T00:03:50.053Z,83.44
2018-07-05T00:04:50.210Z,83.73
2018-07-05T00:05:50.366Z,83.44
2018-07-05T00:06:50.523Z,82.76
2018-07-05T00:07:50.679Z,83.83
2018-07-05T00:08:50.832Z,83.25
2018-07-05T00:09:50.989Z,84.11
2018-07-05T00:10:51.145Z,83.63
2018-07-05T00:11:51.300Z,83.83
2018-07-05T00:12:51.455Z,83.59
2018-07-05T00:13:51.611Z,83.87
2018-07-05T00:14:51.770Z,83.83
2018-07-05T00:15:51.923Z,84.36
2018-07-05T00:16:52.081Z,85.22
2018-07-05T00:17:52.232Z,84.94
2018-07-05T00:18:52.387Z,85.41
2018-07-05T00:19:52.544Z,85.41
2018-07-05T00:20:52.698Z,85.80
2018-07-05T00:21:52.854Z,86.38
2018-07-05T00:22:53.011Z,86.14
2018-07-05T00:23:53.167Z,86.47
2018-07-05T00:24:53.319Z,86.18
2018-07-05T00:25:53.477Z,86.18
2018-07-05T00:26:53.631Z,86.28
2018-07-05T00:27:53.786Z,86.38
2018-07-05T00:28:53.941Z,86.28
2018-07-05T00:29:54.100Z,86.66
2018-07-05T00:30:54.254Z,86.76
2018-07-05T00:31:54.411Z,86.57
2018-07-05T00:32:54.568Z,86.66
2018-07-05T00:33:54.722Z,87.15
2018-07-05T00:34:54.877Z,87.05
2018-07-05T00:35:55.032Z,86.95
2018-07-05T00:36:55.188Z,87.82
2018-07-05T00:37:55.345Z,87.62
2018-07-05T00:38:55.500Z,87.34
2018-07-05T00:39:55.654Z,87.15
2018-07-05T00:40:55.808Z,87.24
2018-07-05T00:41:55.966Z,87.01
2018-07-05T00:42:56.120Z,87.68
2018-07-05T00:43:56.276Z,89.02
2018-07-05T00:44:56.430Z,89.50
2018-07-05T00:45:56.588Z,88.83
2018-07-05T00:46:56.743Z,88.35
2018-07-05T00:47:56.897Z,89.50
2018-07-05T00:48:57.066Z,89.50
2018-07-05T00:49:57.207Z,90.42
2018-07-05T00:50:57.362Z,90.52
2018-07-05T00:51:57.517Z,90.42
2018-07-05T00:52:57.672Z,90.22
2018-07-05T00:53:57.826Z,90.32
2018-07-05T00:54:57.982Z,90.52
2018-07-05T00:55:58.140Z,90.80
2018-07-05T00:56:58.293Z,90.22
2018-07-05T00:57:58.449Z,91.09
2018-07-05T00:58:58.607Z,90.90
2018-07-05T00:59:58.762Z,90.52
2018-07-05T01:00:58.917Z,90.61
2018-07-05T01:01:59.074Z,90.52
2018-07-05T01:02:59.229Z,91.19
2018-07-05T01:03:59.387Z,91.76
2018-07-05T01:04:59.540Z,91.19
2018-07-05T01:05:59.698Z,91.47
2018-07-05T01:06:59.852Z,91.09
2018-07-05T01:08:00.011Z,91.47
2018-07-05T01:09:00.162Z,91.57
2018-07-05T01:10:00.317Z,91.76
2018-07-05T01:11:00.472Z,91.28
2018-07-05T01:12:00.628Z,90.80
2018-07-05T01:13:00.781Z,91.28
2018-07-05T01:14:00.936Z,91.38
2018-07-05T01:15:01.090Z,91.76
2018-07-05T01:16:01.248Z,91.57
2018-07-05T01:17:01.400Z,92.14
2018-07-05T01:18:01.556Z,91.57
2018-07-05T01:19:01.714Z,91.76
2018-07-05T01:20:01.874Z,91.57
2018-07-05T01:21:02.020Z,92.24
2018-07-05T01:22:02.177Z,92.48
2018-07-05T01:23:02.332Z,92.48
2018-07-05T01:24:02.487Z,93.06
2018-07-05T01:25:02.644Z,92.86
2018-07-05T01:26:02.798Z,92.29
2018-07-05T01:27:02.953Z,93.20
2018-07-05T01:28:03.106Z,92.86
2018-07-05T01:29:03.261Z,93.35
2018-07-05T01:30:03.420Z,94.02
2018-07-05T01:31:03.572Z,93.15
2018-07-05T01:32:03.728Z,93.82
2018-07-05T01:33:03.884Z,92.86
2018-07-05T01:34:04.038Z,93.44
2018-07-05T01:35:04.196Z,93.35
2018-07-05T01:36:04.349Z,92.86
2018-07-05T01:37:04.506Z,92.33
2018-07-05T01:38:04.658Z,92.29
2018-07-05T01:39:04.816Z,93.01
2018-07-05T01:40:04.973Z,93.25
2018-07-05T01:41:05.136Z,93.01
2018-07-05T01:42:05.281Z,93.01
2018-07-05T01:43:05.446Z,93.63
2018-07-05T01:44:05.603Z,94.02
2018-07-05T01:45:05.758Z,94.02
2018-07-05T01:46:05.912Z,94.02
2018-07-05T01:47:06.085Z,94.02
2018-07-05T01:48:06.242Z,93.92
2018-07-05T01:49:06.405Z,94.59
2018-07-05T01:50:06.567Z,95.26
2018-07-05T01:51:06.724Z,94.49
2018-07-05T01:52:06.880Z,95.17
2018-07-05T01:53:07.033Z,95.26
2018-07-05T01:54:07.187Z,95.36
2018-07-05T01:55:07.342Z,95.65
2018-07-05T01:56:07.497Z,95.46
2018-07-05T01:57:07.653Z,94.88
2018-07-05T01:58:07.808Z,94.21
2018-07-05T01:59:07.963Z,95.07
2018-07-05T02:00:08.118Z,95.26
2018-07-05T02:01:08.276Z,95.36
2018-07-05T02:02:08.430Z,96.22
2018-07-05T02:03:08.583Z,96.32
2018-07-05T02:04:08.739Z,95.75
2018-07-05T02:05:08.897Z,95.17
2018-07-05T02:06:09.048Z,95.98
2018-07-05T02:07:09.204Z,96.61
2018-07-05T02:08:09.359Z,96.89
2018-07-05T02:09:09.512Z,96.42
2018-07-05T02:10:09.668Z,96.32
2018-07-05T02:11:09.821Z,96.13
2018-07-05T02:12:09.973Z,96.56
2018-07-05T02:13:10.127Z,96.66
2018-07-05T02:14:10.284Z,96.66
2018-07-05T02:15:10.440Z,97.04
2018-07-05T02:16:10.594Z,96.47
2018-07-05T02:17:10.748Z,97.04
2018-07-05T02:18:10.903Z,95.79
2018-07-05T02:19:11.091Z,96.47
2018-07-05T02:20:11.250Z,96.94
2018-07-05T02:21:11.401Z,97.33
2018-07-05T02:22:11.556Z,98.38
2018-07-05T02:23:11.714Z,98.38
2018-07-05T02:24:11.867Z,98.57
2018-07-05T02:25:12.023Z,98.77
2018-07-05T02:26:12.177Z,99.05
2018-07-05T02:27:12.331Z,99.63
2018-07-05T02:28:12.486Z,99.34
2018-07-05T02:29:12.641Z,99.24
2018-07-05T02:30:12.800Z,98.77
2018-07-05T02:31:12.949Z,98.57
2018-07-05T02:32:13.120Z,99.34
2018-07-05T02:33:13.277Z,99.24
2018-07-05T02:34:13.431Z,98.67
2018-07-05T02:35:13.585Z,98.48
2018-07-05T02:36:13.742Z,98.86
2018-07-05T02:37:13.896Z,98.96
2018-07-05T02:38:14.052Z,98.96
2018-07-05T02:39:14.209Z,99.15
2018-07-05T02:40:14.360Z,98.96
2018-07-05T02:41:14.521Z,99.44
2018-07-05T02:42:14.674Z,98.86
2018-07-05T02:43:14.822Z,99.73
2018-07-05T02:44:14.978Z,99.99
2018-07-05T02:45:15.134Z,99.99
2018-07-05T02:46:15.291Z,99.99
2018-07-05T02:47:15.447Z,99.96
2018-07-05T02:48:15.600Z,99.99
2018-07-05T02:49:15.758Z,99.99
2018-07-05T02:50:15.912Z,99.91
2018-07-05T02:51:16.066Z,99.99
2018-07-05T02:52:16.220Z,99.99
2018-07-05T02:53:16.386Z,99.99
2018-07-05T02:54:16.530Z,99.99
2018-07-05T02:55:16.683Z,99.99
2018-07-05T02:56:16.839Z,99.99
2018-07-05T02:57:16.994Z,99.99
2018-07-05T02:58:17.151Z,99.99
2018-07-05T02:59:17.306Z,99.99
2018-07-05T03:00:17.457Z,99.99
2018-07-05T03:01:17.614Z,99.99
2018-07-05T03:02:17.768Z,99.99
2018-07-05T03:03:17.924Z,99.99
2018-07-05T03:04:18.078Z,99.99
2018-07-05T03:05:18.232Z,99.99
2018-07-05T03:06:18.388Z,99.99
2018-07-05T03:07:18.539Z,99.99
2018-07-05T03:08:18.695Z,99.99
2018-07-05T03:09:18.849Z,99.99
2018-07-05T03:10:19.009Z,99.99
2018-07-05T03:11:19.161Z,99.99
2018-07-05T03:12:19.316Z,99.99
2018-07-05T03:13:19.470Z,99.99
2018-07-05T03:14:19.624Z,99.99
2018-07-05T03:15:19.780Z,99.99
2018-07-05T03:16:19.933Z,99.99
2018-07-05T03:17:20.087Z,99.99
2018-07-05T03:18:20.243Z,99.99
2018-07-05T03:19:20.398Z,99.99
2018-07-05T03:20:20.551Z,99.99
2018-07-05T03:21:20.706Z,99.99
2018-07-05T03:22:20.863Z,99.99
2018-07-05T03:23:21.013Z,99.99
2018-07-05T03:24:21.169Z,99.99
2018-07-05T03:25:21.324Z,99.99
2018-07-05T03:26:21.480Z,99.99
2018-07-05T03:27:21.633Z,99.99
2018-07-05T03:28:21.789Z,99.99
2018-07-05T03:29:21.944Z,99.99
2018-07-05T03:30:22.099Z,99.99
2018-07-05T03:31:22.256Z,99.99
2018-07-05T03:32:22.410Z,99.99
2018-07-05T03:33:22.567Z,99.99
2018-07-05T03:34:22.720Z,99.99
2018-07-05T03:35:22.875Z,99.99
2018-07-05T03:36:23.029Z,99.99
2018-07-05T03:37:23.185Z,99.99
2018-07-05T03:38:23.340Z,99.99
2018-07-05T03:39:23.494Z,99.99
2018-07-05T03:40:23.648Z,99.99
2018-07-05T03:41:23.805Z,99.99
2018-07-05T03:42:23.959Z,99.99
2018-07-05T03:43:24.114Z,99.99
2018-07-05T03:44:24.270Z,99.99
2018-07-05T03:45:24.424Z,99.99
2018-07-05T03:46:24.578Z,99.99
2018-07-05T03:47:24.735Z,99.99
2018-07-05T03:48:24.885Z,99.99
2018-07-05T03:49:25.052Z,99.99
2018-07-05T03:50:25.199Z,99.99
2018-07-05T03:51:25.350Z,99.99
2018-07-05T03:52:25.540Z,99.99
2018-07-05T03:53:25.668Z,99.99
2018-07-05T03:54:25.824Z,99.99
2018-07-05T03:55:25.981Z,99.99
2018-07-05T03:56:26.136Z,99.99
2018-07-05T03:57:26.291Z,99.99
2018-07-05T03:58:26.447Z,99.99
2018-07-05T03:59:26.604Z,99.99
2018-07-05T04:00:26.756Z,99.99
2018-07-05T04:01:26.911Z,99.99
2018-07-05T04:02:27.065Z,99.99
2018-07-05T04:03:27.223Z,99.99
2018-07-05T04:04:27.417Z,99.99
2018-07-05T04:05:27.533Z,99.99
2018-07-05T04:06:27.690Z,99.99
2018-07-05T04:07:27.843Z,99.99
2018-07-05T04:08:27.998Z,99.99
2018-07-05T04:09:28.153Z,99.99
2018-07-05T04:10:28.312Z,99.99
2018-07-05T04:11:28.461Z,99.99
2018-07-05T04:12:28.613Z,99.99
2018-07-05T04:13:28.770Z,99.99
2018-07-05T04:14:28.924Z,99.99
2018-07-05T04:15:29.080Z,99.91
2018-07-05T04:16:29.234Z,99.99
2018-07-05T04:17:29.386Z,99.99
2018-07-05T04:18:29.544Z,99.99
2018-07-05T04:19:29.699Z,99.99
2018-07-05T04:20:29.853Z,99.99
2018-07-05T04:21:30.011Z,99.99
2018-07-05T04:22:30.164Z,99.99
2018-07-05T04:23:30.321Z,99.99
2018-07-05T04:24:30.472Z,99.99
2018-07-05T04:25:30.627Z,99.99
2018-07-05T04:26:30.783Z,99.99
2018-07-05T04:27:30.935Z,99.91
2018-07-05T04:28:31.089Z,99.99
2018-07-05T04:29:31.243Z,99.99
2018-07-05T04:30:31.400Z,99.99
2018-07-05T04:31:31.555Z,99.99
2018-07-05T04:32:31.711Z,99.99
2018-07-05T04:33:31.863Z,99.49
2018-07-05T04:34:32.020Z,99.77
2018-07-05T04:35:32.178Z,99.58
2018-07-05T04:36:32.331Z,99.20
2018-07-05T04:37:32.487Z,98.43
2018-07-05T04:38:32.644Z,98.14
2018-07-05T04:39:32.802Z,97.76
2018-07-05T04:40:32.954Z,96.94
2018-07-05T04:41:33.109Z,95.36
2018-07-05T04:42:33.278Z,93.82
2018-07-05T04:43:33.419Z,93.82
2018-07-05T04:44:33.575Z,93.54
2018-07-05T04:45:33.730Z,94.64
2018-07-05T04:46:33.888Z,94.83
2018-07-05T04:47:34.045Z,96.08
2018-07-05T04:48:34.201Z,96.27
2018-07-05T04:49:34.354Z,95.89
2018-07-05T04:50:34.512Z,96.47
2018-07-05T04:51:34.668Z,96.08
2018-07-05T04:52:34.845Z,96.56
2018-07-05T04:53:34.981Z,96.89
2018-07-05T04:54:35.134Z,96.75
2018-07-05T04:55:35.306Z,96.85
2018-07-05T04:56:35.445Z,96.66
2018-07-05T04:57:35.599Z,96.18
2018-07-05T04:58:35.755Z,96.18
2018-07-05T04:59:35.911Z,95.41
2018-07-05T05:00:36.067Z,95.60
2018-07-05T05:01:36.220Z,95.79
2018-07-05T05:02:36.380Z,95.26
2018-07-05T05:03:36.538Z,95.94
2018-07-05T05:04:36.696Z,95.26
2018-07-05T05:05:36.848Z,95.84
2018-07-05T05:06:37.003Z,95.84
2018-07-05T05:07:37.158Z,95.94
2018-07-05T05:08:37.320Z,96.13
2018-07-05T05:09:37.471Z,95.65
2018-07-05T05:10:37.626Z,95.26
2018-07-05T05:11:37.784Z,95.84
2018-07-05T05:12:37.980Z,95.55
2018-07-05T05:13:38.097Z,96.22
2018-07-05T05:14:38.253Z,96.03
2018-07-05T05:15:38.413Z,95.84
2018-07-05T05:16:38.563Z,95.55
2018-07-05T05:17:38.721Z,95.84
2018-07-05T05:18:38.878Z,96.42
2018-07-05T05:19:39.032Z,95.65
2018-07-05T05:20:39.186Z,95.65
2018-07-05T05:21:39.343Z,95.03
2018-07-05T05:22:39.503Z,94.26
2018-07-05T05:23:39.654Z,93.96
2018-07-05T05:24:39.808Z,93.19
2018-07-05T05:25:39.965Z,93.15
2018-07-05T05:26:40.120Z,91.80
2018-07-05T05:27:40.276Z,91.80
2018-07-05T05:28:40.431Z,91.71
2018-07-05T05:29:40.590Z,91.61
2018-07-05T05:30:40.746Z,90.98
2018-07-05T05:31:40.901Z,90.50
2018-07-05T05:32:41.058Z,91.17
2018-07-05T05:33:41.227Z,90.69
2018-07-05T05:34:41.386Z,90.41
2018-07-05T05:35:41.543Z,90.12
2018-07-05T05:36:41.700Z,88.91
2018-07-05T05:37:41.856Z,88.71
2018-07-05T05:38:42.011Z,89.20
2018-07-05T05:39:42.169Z,88.53
2018-07-05T05:40:42.326Z,88.24
2018-07-05T05:41:42.483Z,88.04
2018-07-05T05:42:42.642Z,88.28
2018-07-05T05:43:42.798Z,87.51
2018-07-05T05:44:42.955Z,87.70
2018-07-05T05:45:43.112Z,87.03
2018-07-05T05:46:43.268Z,86.74
2018-07-05T05:47:43.473Z,87.12
2018-07-05T05:48:43.584Z,87.41
2018-07-05T05:49:43.742Z,87.03
2018-07-05T05:50:43.897Z,86.26
2018-07-05T05:51:44.053Z,86.74
2018-07-05T05:52:44.213Z,86.93
2018-07-05T05:53:44.369Z,86.65
2018-07-05T05:54:44.526Z,86.65
2018-07-05T05:55:44.687Z,86.59
2018-07-05T05:56:44.842Z,87.03
2018-07-05T05:57:45.001Z,87.22
2018-07-05T05:58:45.158Z,87.22
2018-07-05T05:59:45.312Z,87.03
2018-07-05T06:00:45.472Z,87.03
2018-07-05T06:01:45.634Z,87.51
2018-07-05T06:02:45.785Z,88.67
2018-07-05T06:03:45.943Z,88.47
2018-07-05T06:04:46.099Z,87.80
2018-07-05T06:05:46.259Z,87.60
2018-07-05T06:06:46.417Z,87.55
2018-07-05T06:07:46.572Z,87.84
2018-07-05T06:08:46.729Z,86.98
2018-07-05T06:09:46.887Z,86.88
2018-07-05T06:10:47.043Z,87.17
2018-07-05T06:11:47.203Z,86.59
2018-07-05T06:12:47.361Z,86.69
2018-07-05T06:13:47.518Z,86.73
2018-07-05T06:14:47.682Z,87.26
2018-07-05T06:15:47.831Z,86.82
2018-07-05T06:16:47.989Z,86.73
2018-07-05T06:17:48.146Z,86.35
2018-07-05T06:18:48.304Z,85.77
2018-07-05T06:19:48.461Z,85.47
2018-07-05T06:20:48.619Z,85.13
2018-07-05T06:21:48.778Z,84.36
2018-07-05T06:22:48.934Z,84.55
2018-07-05T06:23:49.095Z,84.17
2018-07-05T06:24:49.251Z,84.07
2018-07-05T06:25:49.408Z,83.20
2018-07-05T06:26:49.567Z,83.25
2018-07-05T06:27:49.727Z,83.15
2018-07-05T06:28:49.883Z,83.20
2018-07-05T06:29:50.041Z,83.78
2018-07-05T06:30:50.201Z,83.63
2018-07-05T06:31:50.359Z,82.76
2018-07-05T06:32:50.517Z,82.67
2018-07-05T06:33:50.677Z,82.32
2018-07-05T06:34:50.833Z,82.13
2018-07-05T06:35:50.989Z,80.87
2018-07-05T06:36:51.148Z,81.45
2018-07-05T06:37:51.308Z,80.72
2018-07-05T06:38:51.465Z,80.87
2018-07-05T06:39:51.620Z,80.53
2018-07-05T06:40:51.780Z,80.62
2018-07-05T06:41:51.938Z,80.14
2018-07-05T06:42:52.095Z,79.37
2018-07-05T06:43:52.257Z,78.92
2018-07-05T06:44:52.411Z,78.15
2018-07-05T06:45:52.569Z,77.57
2018-07-05T06:46:52.735Z,77.42
2018-07-05T06:47:52.890Z,76.93
2018-07-05T06:48:53.049Z,76.74
2018-07-05T06:49:53.207Z,77.61
2018-07-05T06:50:53.374Z,77.90
2018-07-05T06:51:53.524Z,77.51
2018-07-05T06:52:53.684Z,77.03
2018-07-05T06:53:53.844Z,76.93
2018-07-05T06:54:54.004Z,77.07
2018-07-05T06:55:54.162Z,75.62
2018-07-05T06:56:54.321Z,75.81
2018-07-05T06:57:54.481Z,76.26
2018-07-05T06:58:54.641Z,76.01
2018-07-05T06:59:54.798Z,76.01
2018-07-05T07:00:54.961Z,75.62
2018-07-05T07:01:55.120Z,75.91
2018-07-05T07:02:55.278Z,75.87
2018-07-05T07:03:55.441Z,76.16
2018-07-05T07:04:55.599Z,76.97
2018-07-05T07:05:55.759Z,76.20
2018-07-05T07:06:55.923Z,75.43
2018-07-05T07:07:56.133Z,74.55
2018-07-05T07:08:56.241Z,74.65
2018-07-05T07:09:56.403Z,74.11
2018-07-05T07:10:56.563Z,74.59
2018-07-05T07:11:56.720Z,74.69
2018-07-05T07:12:56.881Z,74.21
2018-07-05T07:13:57.039Z,74.21
2018-07-05T07:14:57.199Z,74.01
2018-07-05T07:15:57.423Z,74.05
2018-07-05T07:16:57.522Z,73.37
2018-07-05T07:17:57.686Z,73.27
2018-07-05T07:18:57.846Z,73.18
2018-07-05T07:19:58.010Z,72.69
2018-07-05T07:20:58.170Z,73.75
2018-07-05T07:21:58.331Z,72.79
2018-07-05T07:22:58.489Z,72.98
2018-07-05T07:23:58.648Z,72.21
2018-07-05T07:24:58.819Z,72.21
2018-07-05T07:25:59.050Z,73.50
2018-07-05T07:26:59.119Z,71.95
2018-07-05T07:27:59.278Z,71.95
2018-07-05T07:28:59.438Z,72.34
2018-07-05T07:29:59.600Z,71.95
2018-07-05T07:30:59.761Z,72.24
2018-07-05T07:31:59.996Z,72.05
2018-07-05T07:33:00.082Z,71.95
2018-07-05T07:34:00.262Z,72.05
2018-07-05T07:35:00.398Z,72.24
2018-07-05T07:36:00.553Z,71.41
2018-07-05T07:37:00.712Z,71.22
2018-07-05T07:38:00.870Z,71.02
2018-07-05T07:39:01.030Z,71.22
2018-07-05T07:40:01.189Z,70.73
2018-07-05T07:41:01.353Z,71.06
2018-07-05T07:42:01.508Z,70.86
2018-07-05T07:43:01.674Z,70.47
2018-07-05T07:44:01.833Z,70.47
2018-07-05T07:45:02.054Z,69.99
2018-07-05T07:46:02.156Z,70.37
2018-07-05T07:47:02.317Z,70.09
2018-07-05T07:48:02.484Z,69.79
2018-07-05T07:49:02.636Z,69.21
2018-07-05T07:50:02.797Z,69.24
2018-07-05T07:51:02.957Z,69.06
2018-07-05T07:52:03.117Z,69.34
2018-07-05T07:53:03.279Z,68.76
2018-07-05T07:54:03.440Z,68.76
2018-07-05T07:55:03.602Z,68.47
2018-07-05T07:56:03.763Z,68.28
2018-07-05T07:57:03.924Z,68.08
2018-07-05T07:58:04.086Z,68.18
2018-07-05T07:59:04.244Z,68.60
2018-07-05T08:00:04.406Z,68.21
2018-07-05T08:01:04.566Z,67.31
2018-07-05T08:02:04.730Z,67.73
2018-07-05T08:03:04.892Z,67.14
2018-07-05T08:04:05.051Z,67.92
2018-07-05T08:05:05.213Z,67.44
2018-07-05T08:06:05.373Z,66.86
2018-07-05T08:07:05.535Z,67.54
2018-07-05T08:08:05.744Z,67.54
2018-07-05T08:09:05.861Z,67.24
2018-07-05T08:10:06.021Z,67.99
2018-07-05T08:11:06.183Z,67.99
2018-07-05T08:12:06.344Z,67.92
2018-07-05T08:13:06.507Z,67.54
2018-07-05T08:14:06.667Z,67.24
2018-07-05T08:15:06.861Z,66.21
2018-07-05T08:16:06.991Z,66.40
2018-07-05T08:17:07.151Z,65.82
2018-07-05T08:18:07.314Z,65.72
2018-07-05T08:19:07.474Z,65.63
2018-07-05T08:20:07.637Z,65.24
2018-07-05T08:21:07.807Z,64.88
2018-07-05T08:22:07.968Z,65.75
2018-07-05T08:23:08.123Z,65.17
2018-07-05T08:24:08.284Z,65.27
2018-07-05T08:25:08.450Z,64.49
2018-07-05T08:26:08.611Z,62.97
2018-07-05T08:27:08.771Z,63.36
2018-07-05T08:28:08.933Z,62.87
2018-07-05T08:29:09.094Z,62.97
2018-07-05T08:30:09.256Z,63.75
2018-07-05T08:31:09.417Z,62.19
2018-07-05T08:32:09.583Z,59.83
2018-07-05T08:33:09.740Z,60.25
2018-07-05T08:34:09.903Z,60.80
2018-07-05T08:35:10.066Z,60.31
2018-07-05T08:36:10.230Z,59.86
2018-07-05T08:37:10.422Z,58.98
2018-07-05T08:38:10.554Z,58.59
2018-07-05T08:39:10.716Z,59.47
2018-07-05T08:40:10.878Z,59.67
2018-07-05T08:41:11.052Z,58.59
2018-07-05T08:42:11.200Z,59.47
2018-07-05T08:43:11.364Z,59.76
2018-07-05T08:44:11.553Z,60.51
2018-07-05T08:45:11.705Z,60.71
2018-07-05T08:46:11.864Z,60.80
2018-07-05T08:47:12.031Z,61.09
2018-07-05T08:48:12.192Z,60.25
2018-07-05T08:49:12.352Z,60.54
2018-07-05T08:50:12.516Z,60.05
2018-07-05T08:51:12.685Z,59.95
2018-07-05T08:52:12.842Z,60.05
2018-07-05T08:53:13.006Z,60.44
2018-07-05T08:54:13.164Z,60.35
2018-07-05T08:55:13.341Z,59.86
2018-07-05T08:56:13.487Z,60.47
2018-07-05T08:57:13.646Z,58.82
2018-07-05T08:58:13.820Z,58.72
2018-07-05T08:59:13.974Z,58.56
2018-07-05T09:00:14.135Z,58.26
2018-07-05T09:01:14.300Z,57.42
2018-07-05T09:02:14.464Z,57.42
2018-07-05T09:03:14.624Z,57.00
2018-07-05T09:04:14.788Z,57.20
2018-07-05T09:05:14.985Z,56.74
2018-07-05T09:06:15.111Z,56.74
2018-07-05T09:07:15.273Z,56.18
2018-07-05T09:08:15.434Z,55.50
2018-07-05T09:09:15.605Z,55.01
2018-07-05T09:10:15.768Z,54.52
2018-07-05T09:11:15.930Z,54.62
2018-07-05T09:12:16.094Z,54.33
2018-07-05T09:13:16.257Z,53.28
2018-07-05T09:14:16.417Z,54.06
2018-07-05T09:15:16.584Z,53.87
2018-07-05T09:16:16.745Z,53.99
2018-07-05T09:17:16.907Z,53.60
2018-07-05T09:18:17.149Z,54.09
2018-07-05T09:19:17.235Z,53.14
2018-07-05T09:20:17.397Z,51.90
2018-07-05T09:21:17.565Z,51.75
2018-07-05T09:22:17.731Z,52.31
2018-07-05T09:23:17.950Z,52.24
2018-07-05T09:24:18.057Z,52.04
2018-07-05T09:25:18.223Z,51.95
2018-07-05T09:26:18.383Z,51.95
2018-07-05T09:27:18.545Z,51.85
2018-07-05T09:28:18.708Z,52.63
2018-07-05T09:29:18.871Z,51.95
2018-07-05T09:30:19.040Z,51.19
2018-07-05T09:31:19.251Z,51.21
2018-07-05T09:32:19.366Z,50.73
2018-07-05T09:33:19.530Z,50.43
2018-07-05T09:34:19.695Z,49.56
2018-07-05T09:35:19.860Z,49.07
2018-07-05T09:36:20.023Z,49.29
2018-07-05T09:37:20.230Z,49.51
2018-07-05T09:38:20.351Z,48.61
2018-07-05T09:39:20.515Z,49.19
2018-07-05T09:40:20.680Z,49.56
2018-07-05T09:41:20.849Z,51.31
2018-07-05T09:42:21.007Z,49.76
2018-07-05T09:43:21.172Z,49.07
2018-07-05T09:44:21.335Z,49.34
2018-07-05T09:45:21.498Z,49.71
2018-07-05T09:46:21.662Z,50.29
2018-07-05T09:47:21.833Z,50.87
2018-07-05T09:48:22.004Z,50.58
2018-07-05T09:49:22.157Z,50.51
2018-07-05T09:50:22.323Z,49.76
2018-07-05T09:51:22.490Z,49.34
2018-07-05T09:52:22.658Z,49.07
2018-07-05T09:53:22.818Z,49.34
2018-07-05T09:54:22.994Z,48.68
2018-07-05T09:55:23.161Z,48.56
2018-07-05T09:56:23.327Z,47.90
2018-07-05T09:57:23.490Z,48.29
2018-07-05T09:58:23.653Z,48.68
2018-07-05T09:59:23.817Z,49.66
2018-07-05T10:00:23.981Z,48.97
2018-07-05T10:01:24.148Z,48.58
2018-07-05T10:02:24.310Z,48.10
2018-07-05T10:03:24.535Z,47.44
2018-07-05T10:04:24.639Z,48.29
2018-07-05T10:05:24.807Z,47.92
2018-07-05T10:06:24.969Z,48.41
2018-07-05T10:07:25.137Z,46.97
2018-07-05T10:08:25.298Z,46.68
2018-07-05T10:09:25.463Z,47.61
2018-07-05T10:10:25.628Z,48.19
2018-07-05T10:11:25.793Z,48.90
2018-07-05T10:12:25.958Z,46.66
2018-07-05T10:13:26.327Z,44.12
2018-07-05T10:14:26.283Z,42.38
2018-07-05T10:15:26.448Z,42.38
2018-07-05T10:16:26.611Z,43.43
2018-07-05T10:17:26.776Z,43.55
2018-07-05T10:18:26.940Z,42.48
2018-07-05T10:19:27.161Z,41.99
2018-07-05T10:20:27.270Z,41.99
2018-07-05T10:21:27.435Z,41.99
2018-07-05T10:22:27.603Z,42.87
2018-07-05T10:23:27.763Z,42.48
2018-07-05T10:24:27.924Z,42.58
2018-07-05T10:25:28.089Z,42.60
2018-07-05T10:26:28.253Z,42.30
2018-07-05T10:27:28.418Z,42.11
2018-07-05T10:28:28.583Z,42.03
2018-07-05T10:29:28.747Z,42.03
2018-07-05T10:30:28.906Z,40.56
2018-07-05T10:31:29.071Z,40.66
2018-07-05T10:32:29.239Z,40.06
2018-07-05T10:33:29.401Z,40.74
2018-07-05T10:34:29.566Z,40.74
2018-07-05T10:35:29.731Z,40.74
2018-07-05T10:36:29.897Z,40.56
2018-07-05T10:37:30.062Z,41.82
2018-07-05T10:38:30.225Z,41.23
2018-07-05T10:39:30.431Z,41.03
2018-07-05T10:40:30.556Z,39.67
2018-07-05T10:41:30.720Z,39.29
2018-07-05T10:42:30.887Z,39.69
2018-07-05T10:43:31.052Z,38.90
2018-07-05T10:44:31.219Z,40.17
2018-07-05T10:45:31.383Z,40.27
2018-07-05T10:46:31.549Z,39.90
2018-07-05T10:47:31.714Z,38.82
2018-07-05T10:48:31.878Z,38.92
2018-07-05T10:49:32.040Z,39.51
2018-07-05T10:50:32.209Z,38.63
2018-07-05T10:51:32.375Z,39.02
2018-07-05T10:52:32.539Z,38.71
2018-07-05T10:53:32.705Z,39.12
2018-07-05T10:54:32.872Z,38.82
2018-07-05T10:55:33.040Z,38.04
2018-07-05T10:56:33.205Z,37.57
2018-07-05T10:57:33.371Z,37.27
2018-07-05T10:58:33.537Z,37.55
2018-07-05T10:59:33.703Z,37.85
2018-07-05T11:00:33.867Z,38.34
2018-07-05T11:01:34.035Z,38.82
2018-07-05T11:02:34.200Z,38.92
2018-07-05T11:03:34.366Z,39.86
2018-07-05T11:04:34.532Z,39.76
2018-07-05T11:05:34.696Z,40.37
2018-07-05T11:06:34.866Z,39.88
2018-07-05T11:07:35.033Z,40.76
2018-07-05T11:08:35.195Z,40.00
2018-07-05T11:09:35.357Z,38.71
2018-07-05T11:10:35.525Z,38.32
2018-07-05T11:11:35.689Z,38.32
2018-07-05T11:12:35.855Z,37.89
2018-07-05T11:13:36.018Z,38.79
2018-07-05T11:14:36.227Z,39.10
2018-07-05T11:15:36.353Z,38.81
2018-07-05T11:16:36.523Z,38.61
2018-07-05T11:17:36.683Z,39.49
2018-07-05T11:18:36.848Z,39.57
2018-07-05T11:19:37.016Z,39.28
2018-07-05T11:20:37.180Z,39.10
2018-07-05T11:21:37.346Z,38.69
2018-07-05T11:22:37.512Z,39.69
2018-07-05T11:23:37.676Z,38.81
2018-07-05T11:24:37.842Z,38.43
2018-07-05T11:25:38.010Z,37.71
2018-07-05T11:26:38.171Z,39.00
2018-07-05T11:27:38.344Z,37.63
2018-07-05T11:28:38.503Z,37.14
2018-07-05T11:29:38.667Z,38.24
2018-07-05T11:30:38.832Z,36.67
2018-07-05T11:31:38.999Z,38.53
2018-07-05T11:32:39.160Z,36.28
2018-07-05T11:33:39.325Z,36.28
2018-07-05T11:34:39.491Z,37.95
2018-07-05T11:35:39.657Z,37.34
2018-07-05T11:36:39.823Z,36.46
2018-07-05T11:37:39.988Z,35.97
2018-07-05T11:38:40.155Z,35.89
2018-07-05T11:39:40.327Z,35.79
2018-07-05T11:40:40.489Z,36.40
2018-07-05T11:41:40.655Z,35.81
2018-07-05T11:42:40.879Z,34.54
2018-07-05T11:43:40.984Z,34.54
2018-07-05T11:44:41.150Z,34.65
2018-07-05T11:45:41.317Z,34.44
2018-07-05T11:46:41.504Z,35.61
2018-07-05T11:47:41.647Z,35.71
2018-07-05T11:48:41.811Z,35.52
2018-07-05T11:49:41.976Z,35.60
2018-07-05T11:50:42.140Z,35.42
2018-07-05T11:51:42.304Z,34.93
2018-07-05T11:52:42.472Z,35.01
2018-07-05T11:53:42.637Z,35.11
2018-07-05T11:54:42.811Z,34.72
2018-07-05T11:55:42.969Z,35.40
2018-07-05T11:56:43.132Z,34.74
2018-07-05T11:57:43.298Z,34.83
2018-07-05T11:58:43.478Z,34.54
2018-07-05T11:59:43.633Z,33.09
2018-07-05T12:00:43.797Z,33.09
2018-07-05T12:01:43.963Z,33.79
2018-07-05T12:02:44.167Z,33.70
2018-07-05T12:03:44.297Z,32.82
2018-07-05T12:04:44.461Z,34.00
2018-07-05T12:05:44.631Z,34.59
2018-07-05T12:06:44.790Z,35.96
2018-07-05T12:07:45.006Z,38.12
2018-07-05T12:08:45.205Z,39.29
2018-07-05T12:09:45.296Z,39.96
2018-07-05T12:10:45.462Z,40.25
2018-07-05T12:11:45.630Z,40.14
2018-07-05T12:12:45.797Z,41.00
2018-07-05T12:13:45.961Z,42.25
2018-07-05T12:14:46.127Z,43.49
2018-07-05T12:15:46.293Z,43.81
2018-07-05T12:16:46.463Z,43.62
2018-07-05T12:17:46.628Z,44.38
2018-07-05T12:18:46.795Z,44.82
2018-07-05T12:19:46.959Z,45.31
2018-07-05T12:20:47.127Z,45.62
2018-07-05T12:21:47.292Z,46.04
2018-07-05T12:22:47.459Z,45.53
2018-07-05T12:23:47.625Z,45.53
2018-07-05T12:24:47.789Z,45.43
2018-07-05T12:25:47.958Z,45.51
2018-07-05T12:26:48.124Z,46.26
2018-07-05T12:27:48.289Z,47.02
2018-07-05T12:28:48.455Z,48.27
2018-07-05T12:29:48.621Z,48.56
2018-07-05T12:30:48.786Z,48.54
2018-07-05T12:31:48.951Z,49.61
2018-07-05T12:32:49.117Z,49.78
2018-07-05T12:33:49.288Z,50.82
2018-07-05T12:34:49.460Z,50.92
2018-07-05T12:35:49.617Z,51.67
2018-07-05T12:36:49.779Z,52.92
2018-07-05T12:37:49.945Z,53.79
2018-07-05T12:38:50.109Z,53.38
2018-07-05T12:39:50.274Z,55.22
2018-07-05T12:40:50.435Z,55.78
2018-07-05T12:41:50.600Z,56.46
2018-07-05T12:42:50.764Z,57.43
2018-07-05T12:43:50.928Z,58.28
2018-07-05T12:44:51.092Z,59.54
2018-07-05T12:45:51.255Z,60.61
2018-07-05T12:46:51.419Z,61.84
2018-07-05T12:47:51.584Z,63.29
2018-07-05T12:48:51.748Z,64.07
2018-07-05T12:49:51.910Z,63.85
2018-07-05T12:50:52.074Z,66.17
2018-07-05T12:51:52.287Z,68.37
2018-07-05T12:52:52.398Z,69.44
2018-07-05T12:53:52.563Z,71.25
2018-07-05T12:54:52.726Z,72.80